Time;durP1;ratioP1;P1;durP2;ratioP2;P2;SDS_P1;SDS_P2;PMS_P1;PMS_P2;Temp;Humidity;BMP_temperature;BMP_pressure;BME280_temperature;BME280_humidity;BME280_pressure;Samples;Min_cycle;Max_cycle;Signal;HPM_P1;HPM_P2
2022/07/18 00:01:00;;;;;;;10.27;5.28;;;16.40;99.90;;;;;;6240024;23;20012;-77
2022/07/18 00:03:26;;;;;;;6.68;4.90;;;16.40;99.90;;;;;;6212945;23;20012;-78
2022/07/18 00:05:53;;;;;;;7.28;4.90;;;16.40;99.90;;;;;;6214476;23;20477;-76
2022/07/18 00:08:18;;;;;;;6.25;4.80;;;16.40;99.90;;;;;;6188738;23;20043;-77
2022/07/18 00:10:44;;;;;;;6.43;4.90;;;16.40;99.90;;;;;;6191023;23;20306;-77
2022/07/18 00:13:10;;;;;;;8.32;4.82;;;16.40;99.90;;;;;;6213654;23;20023;-77
2022/07/18 00:15:36;;;;;;;5.97;4.88;;;16.50;99.90;;;;;;6189420;23;20023;-76
2022/07/18 00:18:03;;;;;;;5.53;4.45;;;16.50;99.90;;;;;;6214391;23;20016;-76
2022/07/18 00:20:29;;;;;;;6.63;4.55;;;16.50;99.90;;;;;;6213915;23;20016;-78
2022/07/18 00:22:55;;;;;;;6.40;4.72;;;16.50;99.90;;;;;;6214180;23;20023;-75
2022/07/18 00:25:22;;;;;;;6.13;4.63;;;16.50;99.90;;;;;;6237844;23;20043;-76
2022/07/18 00:27:48;;;;;;;7.63;5.03;;;16.40;99.90;;;;;;6240512;23;20017;-76
2022/07/18 00:30:13;;;;;;;5.93;4.60;;;16.40;99.90;;;;;;6239736;23;20019;-77
2022/07/18 00:32:40;;;;;;;10.63;5.50;;;16.40;99.90;;;;;;6190281;23;20689;-77
2022/07/18 00:35:06;;;;;;;5.90;4.85;;;16.40;99.90;;;;;;6214239;23;20052;-76
2022/07/18 00:37:32;;;;;;;5.75;4.53;;;16.40;99.90;;;;;;6214168;23;20008;-77
2022/07/18 00:40:04;;;;;;;7.47;4.80;;;16.50;99.90;;;;;;6239914;23;20173;-76
2022/07/18 00:42:30;;;;;;;5.80;4.18;;;16.40;99.90;;;;;;6214983;23;20362;-79
2022/07/18 00:44:56;;;;;;;5.70;4.47;;;16.40;99.90;;;;;;6213964;23;20012;-74
2022/07/18 00:47:22;;;;;;;5.60;4.15;;;16.30;99.90;;;;;;6213960;23;20012;-78
2022/07/18 00:49:48;;;;;;;5.63;4.72;;;16.20;99.90;;;;;;6240562;23;20016;-77
2022/07/18 00:52:13;;;;;;;4.53;3.90;;;16.20;99.90;;;;;;6239811;23;20078;-75
2022/07/18 00:54:40;;;;;;;3.20;2.80;;;16.00;99.90;;;;;;6212986;23;20016;-76
2022/07/18 00:57:06;;;;;;;3.60;2.85;;;15.90;99.90;;;;;;6240855;23;20030;-78
2022/07/18 01:02:16;;;;;;;3.20;2.90;;;15.50;99.90;;;;;;6219200;23;20019;-75
2022/07/18 01:04:42;;;;;;;5.05;2.65;;;15.50;99.90;;;;;;6213400;23;20571;-76
2022/07/18 01:07:09;;;;;;;3.70;2.80;;;15.40;99.90;;;;;;6214632;23;20019;-76
2022/07/18 01:09:35;;;;;;;3.60;3.22;;;15.50;99.90;;;;;;6239437;23;20019;-77
2022/07/18 01:12:01;;;;;;;3.47;3.17;;;15.50;99.90;;;;;;6240746;23;20012;-74
2022/07/18 01:14:27;;;;;;;3.63;3.10;;;15.50;99.90;;;;;;6238395;23;20016;-76
2022/07/18 01:16:54;;;;;;;5.40;3.53;;;15.50;99.90;;;;;;6240157;23;20020;-78
2022/07/18 01:19:20;;;;;;;4.60;3.33;;;15.50;99.90;;;;;;6239103;23;20067;-77
2022/07/18 01:21:45;;;;;;;4.35;3.20;;;15.50;99.90;;;;;;6214219;23;20024;-75
2022/07/18 01:24:11;;;;;;;6.00;4.18;;;15.50;99.90;;;;;;6212855;23;20022;-77
2022/07/18 01:26:37;;;;;;;8.50;4.57;;;15.50;99.90;;;;;;6237129;23;20016;-78
2022/07/18 01:29:03;;;;;;;4.82;4.05;;;15.50;99.90;;;;;;6186965;23;20077;-78
2022/07/18 01:31:33;;;;;;;5.68;4.47;;;15.50;99.90;;;;;;6212244;23;20016;-77
2022/07/18 01:33:59;;;;;;;5.25;4.15;;;15.50;99.90;;;;;;6238653;23;20016;-77
2022/07/18 01:36:25;;;;;;;7.13;4.57;;;15.50;99.90;;;;;;6238102;23;20373;-79
2022/07/18 01:38:51;;;;;;;6.75;4.45;;;15.50;99.90;;;;;;6238721;23;20074;-76
2022/07/18 01:41:16;;;;;;;7.70;4.80;;;15.50;99.90;;;;;;6239102;23;20016;-79
2022/07/18 01:43:42;;;;;;;5.90;4.30;;;15.50;99.90;;;;;;6215858;23;20008;-77
2022/07/18 01:46:10;;;;;;;7.13;4.85;;;15.50;99.90;;;;;;6189681;23;20048;-76
2022/07/18 01:48:40;;;;;;;7.88;4.88;;;15.50;99.90;;;;;;6237191;23;20463;-75
2022/07/18 01:51:09;;;;;;;8.48;4.82;;;15.50;99.90;;;;;;6213111;23;20034;-76
2022/07/18 01:53:37;;;;;;;6.30;5.00;;;15.50;99.90;;;;;;6214130;23;20019;-76
2022/07/18 01:56:04;;;;;;;5.55;4.38;;;15.50;99.90;;;;;;6239062;23;20012;-75
2022/07/18 01:58:29;;;;;;;8.27;5.03;;;15.40;99.90;;;;;;6214982;23;20023;-75
2022/07/18 02:00:55;;;;;;;7.05;4.25;;;15.40;99.90;;;;;;6187197;23;20030;-75
2022/07/18 02:03:20;;;;;;;6.20;5.15;;;15.40;99.90;;;;;;6189194;23;20086;-75
2022/07/18 02:05:46;;;;;;;6.45;4.90;;;15.40;99.90;;;;;;6215900;23;20017;-75
2022/07/18 02:08:12;;;;;;;7.03;5.13;;;15.30;99.90;;;;;;6240481;23;20330;-76
2022/07/18 02:10:38;;;;;;;8.05;5.10;;;15.30;99.90;;;;;;6241275;23;20082;-76
2022/07/18 02:13:04;;;;;;;7.68;5.05;;;15.30;99.90;;;;;;6190529;23;20340;-77
2022/07/18 02:15:30;;;;;;;9.10;5.30;;;15.20;99.90;;;;;;6214705;23;20008;-77
2022/07/18 02:17:55;;;;;;;8.13;5.40;;;15.30;99.90;;;;;;6240981;23;20046;-76
2022/07/18 02:20:21;;;;;;;8.30;5.30;;;15.30;99.90;;;;;;6239011;23;20031;-76
2022/07/18 02:22:47;;;;;;;7.30;5.32;;;15.30;99.90;;;;;;6240015;23;20038;-76
2022/07/18 02:25:13;;;;;;;8.00;5.80;;;15.30;99.90;;;;;;6189140;23;20012;-76
2022/07/18 02:27:39;;;;;;;8.00;4.82;;;15.20;99.90;;;;;;6239666;23;20419;-79
2022/07/18 02:30:07;;;;;;;9.98;5.53;;;15.20;99.90;;;;;;6215208;23;20062;-76
2022/07/18 02:32:35;;;;;;;6.75;5.00;;;15.10;99.90;;;;;;6213712;23;20024;-77
2022/07/18 02:35:00;;;;;;;7.32;5.40;;;15.10;99.90;;;;;;6239957;23;20058;-79
2022/07/18 02:37:26;;;;;;;8.80;6.22;;;15.10;99.90;;;;;;6190974;23;20416;-76
2022/07/18 02:39:52;;;;;;;8.65;5.88;;;15.20;99.90;;;;;;6240420;23;20294;-77
2022/07/18 02:42:17;;;;;;;8.90;6.10;;;15.50;99.90;;;;;;6240775;23;20066;-78
2022/07/18 02:44:45;;;;;;;8.32;5.82;;;15.60;99.90;;;;;;6216381;23;20016;-76
2022/07/18 02:47:10;;;;;;;7.65;5.75;;;15.60;99.90;;;;;;6213838;23;20016;-76
2022/07/18 02:49:38;;;;;;;9.13;5.85;;;15.70;99.90;;;;;;6212413;23;20016;-78
2022/07/18 02:52:06;;;;;;;10.60;6.53;;;15.70;99.90;;;;;;6213714;23;20023;-76
2022/07/18 02:54:34;;;;;;;10.68;6.40;;;15.70;99.90;;;;;;6238239;23;20012;-77
2022/07/18 02:57:00;;;;;;;8.55;6.57;;;15.80;99.90;;;;;;6238270;23;20043;-76
2022/07/18 02:59:27;;;;;;;9.07;5.85;;;15.80;99.90;;;;;;6212991;23;20019;-75
2022/07/18 03:01:53;;;;;;;8.60;6.13;;;15.70;99.90;;;;;;6238310;23;20290;-76
2022/07/18 03:04:20;;;;;;;11.15;6.18;;;15.80;99.90;;;;;;6239665;23;20012;-78
2022/07/18 03:06:46;;;;;;;8.25;6.50;;;15.70;99.90;;;;;;6239355;23;20070;-77
2022/07/18 03:09:13;;;;;;;10.77;6.72;;;15.70;99.90;;;;;;6213734;23;20012;-78
2022/07/18 03:11:39;;;;;;;9.68;6.95;;;15.70;99.90;;;;;;6213275;23;20012;-76
2022/07/18 03:14:05;;;;;;;8.43;6.50;;;15.70;99.90;;;;;;6237823;23;20016;-75
2022/07/18 03:16:31;;;;;;;9.35;6.32;;;15.70;99.90;;;;;;6212196;23;20016;-75
2022/07/18 03:18:57;;;;;;;9.32;6.30;;;15.70;99.90;;;;;;6210698;23;20030;-75
2022/07/18 03:21:22;;;;;;;9.57;6.28;;;15.70;99.90;;;;;;6237822;23;20070;-76
2022/07/18 03:23:48;;;;;;;9.45;6.25;;;15.70;99.90;;;;;;6186215;23;20008;-75
2022/07/18 03:26:14;;;;;;;9.02;6.10;;;15.80;99.90;;;;;;6212135;23;20012;-76
2022/07/18 03:28:40;;;;;;;8.30;6.03;;;15.80;99.90;;;;;;6213232;23;20016;-76
2022/07/18 03:31:05;;;;;;;9.98;6.65;;;15.90;99.90;;;;;;6214813;23;20016;-76
2022/07/18 03:33:31;;;;;;;10.40;5.97;;;16.00;99.90;;;;;;6214525;23;20101;-76
2022/07/18 03:35:57;;;;;;;6.78;5.78;;;16.10;99.90;;;;;;6240020;23;20016;-76
2022/07/18 03:38:23;;;;;;;7.63;5.70;;;16.10;99.90;;;;;;6240337;23;20308;-77
2022/07/18 03:40:49;;;;;;;11.20;6.28;;;16.20;99.90;;;;;;6164564;23;20537;-77
2022/07/18 03:43:14;;;;;;;7.13;5.85;;;16.30;99.90;;;;;;6237683;23;20042;-77
2022/07/18 03:45:40;;;;;;;9.05;5.75;;;16.30;99.90;;;;;;6237947;23;20009;-78
2022/07/18 03:48:06;;;;;;;9.68;5.45;;;16.30;99.90;;;;;;6188374;23;20092;-76
2022/07/18 03:50:33;;;;;;;7.82;5.55;;;16.30;99.90;;;;;;6237577;23;20389;-77
2022/07/18 03:53:00;;;;;;;8.93;5.32;;;16.30;99.90;;;;;;6238618;23;20310;-76
2022/07/18 03:55:26;;;;;;;8.63;5.30;;;16.30;99.90;;;;;;6211508;23;20028;-76
2022/07/18 03:57:52;;;;;;;10.18;5.25;;;16.30;99.90;;;;;;6211913;23;20460;-76
2022/07/18 04:00:18;;;;;;;8.85;5.97;;;16.30;99.90;;;;;;6238150;23;20012;-77
2022/07/18 04:02:47;;;;;;;9.68;6.35;;;16.30;99.90;;;;;;6212284;23;20012;-77
2022/07/18 04:05:14;;;;;;;9.73;6.45;;;16.20;99.90;;;;;;6237815;23;20012;-79
2022/07/18 04:07:40;;;;;;;10.10;6.78;;;16.20;99.90;;;;;;6211103;23;20096;-75
2022/07/18 04:10:08;;;;;;;7.78;6.28;;;16.20;99.90;;;;;;6213499;23;20463;-77
2022/07/18 04:12:34;;;;;;;9.15;6.78;;;16.20;99.90;;;;;;6212761;23;20321;-79
2022/07/18 04:15:00;;;;;;;9.73;6.40;;;16.10;99.90;;;;;;6237966;23;20087;-77
2022/07/18 04:17:26;;;;;;;8.68;6.13;;;16.10;99.90;;;;;;6210317;23;20050;-76
2022/07/18 04:19:52;;;;;;;8.05;6.25;;;16.10;99.90;;;;;;6213615;23;20016;-76
2022/07/18 04:22:18;;;;;;;11.73;7.15;;;16.10;99.90;;;;;;6212788;23;20016;-77
2022/07/18 04:24:43;;;;;;;11.27;6.43;;;16.10;99.90;;;;;;6212867;23;20023;-77
2022/07/18 04:27:09;;;;;;;8.02;5.80;;;16.10;99.90;;;;;;6212280;23;20016;-76
2022/07/18 04:29:36;;;;;;;8.07;6.10;;;16.20;99.90;;;;;;6213468;23;20016;-77
2022/07/18 04:32:02;;;;;;;8.07;5.50;;;16.20;99.90;;;;;;6212491;23;20015;-79
2022/07/18 04:34:28;;;;;;;9.27;5.90;;;16.30;99.90;;;;;;6237294;23;20008;-76
2022/07/18 04:36:53;;;;;;;8.63;6.07;;;16.30;99.90;;;;;;6237974;23;20045;-76
2022/07/18 04:39:19;;;;;;;8.95;6.47;;;16.30;99.90;;;;;;6186539;23;20008;-76
2022/07/18 04:41:45;;;;;;;8.10;5.93;;;16.30;99.90;;;;;;6211309;23;20050;-76
2022/07/18 04:44:11;;;;;;;7.38;5.13;;;16.40;99.90;;;;;;6212823;23;20015;-76
2022/07/18 04:46:36;;;;;;;7.93;5.88;;;16.40;99.90;;;;;;6211814;23;20016;-78
2022/07/18 04:49:02;;;;;;;10.52;5.68;;;16.50;99.90;;;;;;6186692;23;20012;-77
2022/07/18 04:51:28;;;;;;;7.22;5.90;;;16.50;99.90;;;;;;6237438;23;20436;-77
2022/07/18 04:53:54;;;;;;;7.57;5.30;;;16.60;99.90;;;;;;6237396;23;20016;-77
2022/07/18 04:56:22;;;;;;;9.93;5.63;;;16.60;99.90;;;;;;6186508;23;20661;-76
2022/07/18 04:58:48;;;;;;;8.75;5.43;;;16.60;99.90;;;;;;6236370;23;20016;-78
2022/07/18 05:01:14;;;;;;;7.88;4.97;;;16.70;99.90;;;;;;6212165;23;20026;-77
2022/07/18 05:03:39;;;;;;;8.60;4.82;;;16.80;99.90;;;;;;6211970;23;20016;-77
2022/07/18 05:06:05;;;;;;;9.30;5.15;;;16.80;99.90;;;;;;6187403;23;20016;-77
2022/07/18 05:08:31;;;;;;;7.13;4.55;;;16.80;99.90;;;;;;6211431;23;20441;-78
2022/07/18 05:10:56;;;;;;;6.55;4.90;;;16.90;99.90;;;;;;6187494;23;20020;-77
2022/07/18 05:13:22;;;;;;;5.95;4.55;;;16.90;99.90;;;;;;6188783;23;20031;-77
2022/07/18 05:15:48;;;;;;;6.85;4.60;;;16.90;99.90;;;;;;6214380;23;20016;-78
2022/07/18 05:18:14;;;;;;;9.15;4.50;;;16.90;99.90;;;;;;6212218;23;20023;-78
2022/07/18 05:20:40;;;;;;;5.55;3.92;;;17.00;99.90;;;;;;6211591;23;20012;-78
2022/07/18 05:23:06;;;;;;;11.93;4.55;;;17.00;99.90;;;;;;6237360;23;20026;-75
2022/07/18 05:25:31;;;;;;;7.18;5.10;;;17.00;99.90;;;;;;6239724;23;20095;-75
2022/07/18 05:27:57;;;;;;;8.75;4.60;;;17.10;99.90;;;;;;6212870;23;20471;-78
2022/07/18 05:30:24;;;;;;;7.18;4.70;;;17.10;99.90;;;;;;6210756;23;20032;-76
2022/07/18 05:32:51;;;;;;;6.20;4.32;;;17.20;99.90;;;;;;6214290;23;20012;-78
2022/07/18 05:35:18;;;;;;;10.25;4.55;;;17.20;99.90;;;;;;6242380;23;20050;-76
2022/07/18 05:37:44;;;;;;;6.38;4.40;;;17.20;99.90;;;;;;6241200;23;20016;-76
2022/07/18 05:40:13;;;;;;;6.15;4.55;;;17.20;99.90;;;;;;6243427;23;20345;-77
2022/07/18 05:42:38;;;;;;;6.88;4.55;;;17.20;99.90;;;;;;6241192;23;20015;-77
2022/07/18 05:45:05;;;;;;;7.90;4.82;;;17.20;99.90;;;;;;6217025;23;20404;-77
2022/07/18 05:47:31;;;;;;;7.93;4.18;;;17.30;99.90;;;;;;6217086;23;20015;-78
2022/07/18 05:49:57;;;;;;;7.00;4.30;;;17.30;99.90;;;;;;6242576;23;20303;-77
2022/07/18 05:52:23;;;;;;;8.32;4.55;;;17.40;99.90;;;;;;6217068;23;20022;-75
2022/07/18 05:54:48;;;;;;;5.93;4.05;;;17.50;99.90;;;;;;6216337;23;20024;-76
2022/07/18 05:57:14;;;;;;;6.80;3.13;;;17.50;99.90;;;;;;6242893;23;20445;-76
2022/07/18 05:59:40;;;;;;;7.13;3.85;;;17.60;99.90;;;;;;6241997;23;20090;-75
2022/07/18 06:02:05;;;;;;;6.10;4.03;;;17.70;99.90;;;;;;6190928;23;20321;-78
2022/07/18 06:04:31;;;;;;;4.80;3.40;;;17.70;99.90;;;;;;6217188;23;20015;-71
2022/07/18 06:06:57;;;;;;;6.60;3.65;;;17.80;99.90;;;;;;6242124;23;20341;-76
2022/07/18 06:09:22;;;;;;;5.13;3.45;;;17.90;99.90;;;;;;6242932;23;20055;-76
2022/07/18 06:11:48;;;;;;;9.18;3.65;;;17.90;99.90;;;;;;6241901;23;20298;-77
2022/07/18 06:14:14;;;;;;;6.07;3.35;;;18.00;99.90;;;;;;6217325;23;20019;-78
2022/07/18 06:16:41;;;;;;;5.07;3.53;;;18.10;99.90;;;;;;6240045;23;20317;-77
2022/07/18 06:19:06;;;;;;;5.40;2.95;;;18.20;99.90;;;;;;6239876;23;20375;-77
2022/07/18 06:21:32;;;;;;;5.53;3.17;;;18.30;99.90;;;;;;6238931;23;20103;-76
2022/07/18 06:23:58;;;;;;;5.95;3.60;;;18.40;99.90;;;;;;6213794;23;20453;-76
2022/07/18 06:26:24;;;;;;;5.60;3.10;;;18.40;99.90;;;;;;6215193;23;20284;-77
2022/07/18 06:28:49;;;;;;;4.65;3.28;;;18.50;99.90;;;;;;6240591;23;20290;-78
2022/07/18 06:31:16;;;;;;;5.93;3.30;;;18.60;99.90;;;;;;6239243;23;20020;-76
2022/07/18 06:33:42;;;;;;;5.55;3.30;;;18.80;99.90;;;;;;6240556;23;20415;-76
2022/07/18 06:36:08;;;;;;;9.13;3.00;;;18.90;99.90;;;;;;6214702;23;20066;-78
2022/07/18 06:38:34;;;;;;;5.60;3.38;;;18.90;99.90;;;;;;6240599;23;20432;-78
2022/07/18 06:41:00;;;;;;;4.85;3.20;;;19.10;99.90;;;;;;6189119;23;20016;-77
2022/07/18 06:43:25;;;;;;;4.07;3.00;;;19.30;99.90;;;;;;6189976;23;20019;-78
2022/07/18 06:45:52;;;;;;;5.32;2.97;;;19.30;99.90;;;;;;6240767;23;20062;-77
2022/07/18 06:48:17;;;;;;;5.18;3.00;;;19.40;99.90;;;;;;6217695;23;20019;-77
2022/07/18 06:50:43;;;;;;;5.47;2.75;;;19.50;99.90;;;;;;6216007;23;20008;-78
2022/07/18 06:53:12;;;;;;;6.05;2.40;;;19.50;99.90;;;;;;6216641;23;20089;-77
2022/07/18 06:55:37;;;;;;;6.47;2.70;;;19.60;99.90;;;;;;6164669;23;20020;-76
2022/07/18 06:58:03;;;;;;;4.05;2.47;;;19.70;99.90;;;;;;6213537;23;20099;-77
2022/07/18 07:00:29;;;;;;;4.38;2.55;;;19.70;99.90;;;;;;6191902;23;20016;-78
2022/07/18 07:02:55;;;;;;;3.55;2.28;;;19.80;99.90;;;;;;6242032;23;20016;-78
2022/07/18 07:05:21;;;;;;;3.50;2.67;;;19.80;99.90;;;;;;6242981;23;20008;-79
2022/07/18 07:07:48;;;;;;;5.68;2.80;;;19.90;99.90;;;;;;6215864;23;20023;-77
2022/07/18 07:10:15;;;;;;;4.10;2.20;;;19.80;99.90;;;;;;6217446;23;20016;-66
2022/07/18 07:12:47;;;;;;;2.88;2.08;;;20.20;99.90;;;;;;6242075;23;20020;-77
2022/07/18 07:15:13;;;;;;;4.25;2.20;;;20.40;99.90;;;;;;6242629;23;20074;-76
2022/07/18 07:17:38;;;;;;;3.65;2.30;;;20.40;99.90;;;;;;6240948;23;20012;-78
2022/07/18 07:20:05;;;;;;;4.60;2.45;;;20.50;99.90;;;;;;6241063;23;20091;-78
2022/07/18 07:22:32;;;;;;;5.97;2.35;;;20.60;99.90;;;;;;6190743;23;20018;-76
2022/07/18 07:24:58;;;;;;;3.05;1.85;;;20.90;99.90;;;;;;6241637;23;20131;-77
2022/07/18 07:27:24;;;;;;;2.72;2.00;;;20.80;99.90;;;;;;6238645;23;20423;-78
2022/07/18 07:29:50;;;;;;;3.85;2.30;;;20.80;99.90;;;;;;6238348;23;20012;-77
2022/07/18 07:32:15;;;;;;;4.10;2.30;;;21.00;99.90;;;;;;6190146;23;20325;-76
2022/07/18 07:34:41;;;;;;;2.97;1.92;;;21.20;99.90;;;;;;6214524;23;20012;-75
2022/07/18 07:37:07;;;;;;;3.22;2.10;;;21.40;99.90;;;;;;6214024;23;20009;-77
2022/07/18 07:39:32;;;;;;;3.22;2.10;;;21.50;99.90;;;;;;6214701;23;20016;-77
2022/07/18 07:41:58;;;;;;;3.55;2.22;;;21.70;99.90;;;;;;6212297;23;20020;-77
2022/07/18 07:44:24;;;;;;;4.40;1.90;;;21.80;99.90;;;;;;6212413;23;20083;-79
2022/07/18 07:46:50;;;;;;;5.30;2.50;;;21.80;99.90;;;;;;6212509;23;20012;-76
2022/07/18 07:49:16;;;;;;;3.13;2.10;;;22.00;99.90;;;;;;6237473;23;20925;-77
2022/07/18 07:51:42;;;;;;;3.10;1.90;;;22.00;99.90;;;;;;6211618;23;20098;-77
2022/07/18 07:54:07;;;;;;;4.30;2.00;;;22.00;99.90;;;;;;6210298;23;20098;-76
2022/07/18 07:56:33;;;;;;;3.58;2.17;;;22.10;99.90;;;;;;6209499;23;20345;-77
2022/07/18 07:59:00;;;;;;;2.83;1.90;;;22.10;99.90;;;;;;6211426;23;20012;-76
2022/07/18 08:01:26;;;;;;;3.25;2.00;;;22.10;99.90;;;;;;6237756;23;20012;-77
2022/07/18 08:03:52;;;;;;;4.15;2.03;;;22.20;99.90;;;;;;6235829;23;20023;-78
2022/07/18 08:06:18;;;;;;;3.00;2.47;;;22.30;99.90;;;;;;6209944;23;20043;-77
2022/07/18 08:08:43;;;;;;;3.75;2.10;;;22.30;99.90;;;;;;6236979;23;20114;-77
2022/07/18 08:11:09;;;;;;;4.28;1.90;;;22.40;99.90;;;;;;6236761;23;20031;-77
2022/07/18 08:13:35;;;;;;;3.30;1.90;;;22.40;99.90;;;;;;6237628;23;20024;-77
2022/07/18 08:16:00;;;;;;;5.45;1.90;;;22.60;99.90;;;;;;6211812;23;20020;-77
2022/07/18 08:18:26;;;;;;;2.67;1.88;;;22.70;99.90;;;;;;6211904;23;20027;-76
2022/07/18 08:20:52;;;;;;;5.32;1.70;;;22.50;99.90;;;;;;6211688;23;20016;-78
2022/07/18 08:23:17;;;;;;;2.47;1.60;;;22.50;99.90;;;;;;6237623;23;20087;-77
2022/07/18 08:25:44;;;;;;;4.47;1.52;;;22.50;99.90;;;;;;6236670;23;20016;-79
2022/07/18 08:28:10;;;;;;;2.42;1.75;;;22.70;99.90;;;;;;6237323;23;20016;-78
2022/07/18 08:30:37;;;;;;;3.17;1.70;;;22.80;99.90;;;;;;6237266;23;20460;-78
2022/07/18 08:33:03;;;;;;;5.10;1.70;;;23.00;99.90;;;;;;6236505;23;20544;-76
2022/07/18 08:35:31;;;;;;;3.28;1.67;;;23.20;99.90;;;;;;6237947;23;20016;-79
2022/07/18 08:37:58;;;;;;;2.38;1.50;;;23.30;99.90;;;;;;6211827;23;20093;-78
2022/07/18 08:40:24;;;;;;;3.58;1.48;;;23.40;99.90;;;;;;6212062;23;20016;-75
2022/07/18 08:42:51;;;;;;;3.47;2.03;;;23.60;99.90;;;;;;6238063;23;20027;-76
2022/07/18 08:45:21;;;;;;;2.33;1.50;;;23.70;99.90;;;;;;6211378;23;20445;-78
2022/07/18 08:47:48;;;;;;;2.72;1.85;;;23.80;99.90;;;;;;6237180;23;20433;-77
2022/07/18 08:50:14;;;;;;;2.75;1.75;;;23.90;99.90;;;;;;6236371;23;20020;-79
2022/07/18 08:52:39;;;;;;;4.68;1.70;;;23.90;99.90;;;;;;6236284;23;20589;-77
2022/07/18 08:55:07;;;;;;;4.68;1.80;;;23.90;99.90;;;;;;6210115;23;20023;-75
2022/07/18 08:57:33;;;;;;;10.90;1.83;;;23.80;99.90;;;;;;6187245;23;20016;-78
2022/07/18 08:59:59;;;;;;;2.05;1.40;;;23.90;99.90;;;;;;6211758;23;20013;-77
2022/07/18 09:02:28;;;;;;;5.22;1.65;;;24.00;99.90;;;;;;6236715;23;20011;-77
2022/07/18 09:04:54;;;;;;;3.65;1.70;;;23.90;99.90;;;;;;6212932;23;20094;-75
2022/07/18 09:07:29;;;;;;;4.28;1.80;;;24.10;99.90;;;;;;6238677;23;20062;-74
2022/07/18 09:09:57;;;;;;;3.33;1.67;;;24.10;99.90;;;;;;6237305;23;20504;-75
2022/07/18 09:12:25;;;;;;;2.60;1.77;;;24.10;99.90;;;;;;6235938;23;20016;-75
2022/07/18 09:14:51;;;;;;;3.15;1.90;;;24.20;99.90;;;;;;6236408;23;20048;-75
2022/07/18 09:17:22;;;;;;;3.20;1.70;;;24.30;99.90;;;;;;6237080;23;20009;-77
2022/07/18 09:20:05;;;;;;;7.60;2.00;;;24.40;99.90;;;;;;6236642;23;20013;-76
2022/07/18 09:22:33;;;;;;;6.32;1.60;;;24.50;99.90;;;;;;6210581;23;20016;-76
2022/07/18 09:25:01;;;;;;;3.95;1.70;;;24.50;99.90;;;;;;6236829;23;20012;-75
2022/07/18 09:27:29;;;;;;;5.53;1.90;;;24.70;99.90;;;;;;6236854;23;20329;-75
2022/07/18 09:30:15;;;;;;;3.45;1.85;;;24.70;99.90;;;;;;6234982;23;20321;-76
2022/07/18 09:32:43;;;;;;;5.93;2.00;;;25.00;99.90;;;;;;6211491;23;20012;-76
2022/07/18 09:35:12;;;;;;;3.08;1.60;;;25.10;99.90;;;;;;6235659;23;20008;-73
2022/07/18 09:37:39;;;;;;;3.25;1.88;;;25.30;99.90;;;;;;6237015;23;20012;-76
2022/07/18 09:40:33;;;;;;;3.05;1.58;;;25.30;99.90;;;;;;6210390;23;20463;-73
2022/07/18 09:43:08;;;;;;;3.83;1.80;;;25.30;99.90;;;;;;6224892;23;20013;-74
2022/07/18 09:45:41;;;;;;;3.42;1.77;;;25.60;99.90;;;;;;6235137;23;20008;-76
2022/07/18 09:48:10;;;;;;;5.90;1.65;;;25.80;99.90;;;;;;6237143;23;20445;-74
2022/07/18 09:50:42;;;;;;;4.63;1.73;;;26.10;94.20;;;;;;6238078;23;20019;-75
2022/07/18 09:53:15;;;;;;;3.67;1.88;;;26.00;92.80;;;;;;6239468;23;20016;-76
2022/07/18 09:55:47;;;;;;;5.00;2.10;;;25.90;71.20;;;;;;6238776;23;20016;-75
2022/07/18 09:58:16;;;;;;;6.25;1.77;;;25.90;59.70;;;;;;6214190;23;20016;-76
2022/07/18 10:00:41;;;;;;;3.08;1.70;;;26.30;86.50;;;;;;6214422;23;20048;-76
2022/07/18 10:03:08;;;;;;;3.95;1.60;;;26.40;81.50;;;;;;6240583;23;20012;-76
2022/07/18 10:05:37;;;;;;;2.95;1.50;;;26.70;67.30;;;;;;6214934;23;20012;-77
2022/07/18 10:08:06;;;;;;;3.97;1.60;;;26.90;63.20;;;;;;6214882;23;20016;-76
2022/07/18 10:10:32;;;;;;;3.67;1.65;;;27.00;50.20;;;;;;6240140;23;20016;-78
2022/07/18 10:13:00;;;;;;;2.40;1.60;;;26.80;1.00;;;;;;6240830;23;20017;-77
2022/07/18 10:15:29;;;;;;;2.88;1.55;;;26.80;22.40;;;;;;6239661;23;20020;-76
2022/07/18 10:17:56;;;;;;;9.90;1.80;;;26.50;1.00;;;;;;6240615;23;20020;-77
2022/07/18 10:20:47;;;;;;;4.72;1.58;;;27.00;7.80;;;;;;6239902;23;20345;-77
2022/07/18 10:23:24;;;;;;;4.70;1.60;;;27.20;16.70;;;;;;6240695;23;20058;-79
2022/07/18 10:26:13;;;;;;;3.10;1.65;;;27.70;3.20;;;;;;6214893;23;20046;-77
2022/07/18 10:31:33;;;;;;;3.10;1.52;;;27.50;1.00;;;;;;6238658;23;20032;-77
2022/07/18 10:34:09;;;;;;;5.22;1.88;;;27.50;1.00;;;;;;6239247;23;20030;-78
2022/07/18 10:37:06;;;;;;;4.72;2.20;;;27.70;1.00;;;;;;6212364;23;20016;-79
2022/07/18 10:39:42;;;;;;;3.97;1.75;;;28.00;1.00;;;;;;6213603;23;20016;-78
2022/07/18 10:42:11;;;;;;;4.18;1.80;;;28.30;1.00;;;;;;6239531;23;20090;-80
2022/07/18 10:44:40;;;;;;;5.43;1.95;;;28.30;1.00;;;;;;6215025;23;20019;-79
2022/07/18 10:47:20;;;;;;;2.92;1.73;;;28.30;1.00;;;;;;6239364;23;20393;-77
2022/07/18 10:49:57;;;;;;;3.25;1.90;;;28.60;1.00;;;;;;6240257;23;20066;-77
2022/07/18 10:55:16;;;;;;;7.20;2.30;;;28.40;1.00;;;;;;6240321;23;20017;-78
2022/07/18 10:57:54;;;;;;;4.10;1.92;;;28.50;1.00;;;;;;6240494;23;20040;-79
2022/07/18 11:00:23;;;;;;;3.40;2.13;;;29.00;1.00;;;;;;6215766;23;20016;-77
2022/07/18 11:03:04;;;;;;;5.43;2.10;;;29.00;1.00;;;;;;6240471;23;20059;-75
2022/07/18 11:05:30;;;;;;;5.60;2.40;;;29.30;1.00;;;;;;6240672;23;20017;-77
2022/07/18 11:08:01;;;;;;;3.35;2.20;;;29.50;1.00;;;;;;6214694;23;20008;-79
2022/07/18 11:10:54;;;;;;;5.82;2.30;;;29.20;1.00;;;;;;6213129;23;20016;-79
2022/07/18 11:13:28;;;;;;;3.30;1.95;;;28.80;99.90;;;;;;6213971;23;20020;-79
2022/07/18 11:15:55;;;;;;;4.93;2.20;;;29.20;99.90;;;;;;6215337;23;20035;-78
2022/07/18 11:18:22;;;;;;;3.33;1.98;;;29.40;1.00;;;;;;6214087;23;20099;-80
2022/07/18 11:20:48;;;;;;;2.75;2.20;;;29.40;1.00;;;;;;6238724;23;20023;-75
2022/07/18 11:23:20;;;;;;;3.70;2.10;;;28.80;99.90;;;;;;6213625;23;20008;-76
2022/07/18 11:25:58;;;;;;;4.83;2.27;;;29.30;1.00;;;;;;6239591;23;20393;-75
2022/07/18 11:28:28;;;;;;;4.63;2.80;;;29.30;99.90;;;;;;6239449;23;20048;-77
2022/07/18 11:31:08;;;;;;;4.38;2.67;;;29.20;99.90;;;;;;6239845;23;20027;-73
2022/07/18 11:33:38;;;;;;;2.90;2.30;;;29.20;99.90;;;;;;6238854;23;20302;-73
2022/07/18 11:36:13;;;;;;;5.57;2.40;;;29.10;99.90;;;;;;6214736;23;20062;-76
2022/07/18 11:38:51;;;;;;;5.18;3.00;;;29.40;99.90;;;;;;6214854;23;20028;-78
2022/07/18 11:41:17;;;;;;;4.15;2.85;;;29.60;99.90;;;;;;6238485;23;20078;-79
2022/07/18 11:43:44;;;;;;;6.55;3.00;;;29.20;99.90;;;;;;6213819;23;20647;-78
2022/07/18 11:46:13;;;;;;;5.55;3.20;;;29.40;99.90;;;;;;6239515;23;20012;-79
2022/07/18 11:48:39;;;;;;;3.80;2.85;;;29.90;99.90;;;;;;6239832;23;20039;-78
2022/07/18 11:51:13;;;;;;;4.55;2.85;;;30.30;99.90;;;;;;6237958;23;20027;-80
2022/07/18 11:53:49;;;;;;;4.50;3.05;;;30.70;99.90;;;;;;6214213;23;20062;-79
2022/07/18 11:56:16;;;;;;;4.07;2.65;;;30.80;99.90;;;;;;6214983;23;20012;-80
2022/07/18 11:58:44;;;;;;;4.95;2.72;;;30.60;99.90;;;;;;6239741;23;20008;-78
2022/07/18 12:01:10;;;;;;;5.32;2.95;;;30.90;99.90;;;;;;6237553;23;20491;-79
2022/07/18 12:03:40;;;;;;;3.22;2.88;;;30.70;99.90;;;;;;6239460;23;20019;-82
2022/07/18 12:06:12;;;;;;;5.53;3.38;;;30.90;99.90;;;;;;6213992;23;20020;-81
2022/07/18 12:08:45;;;;;;;4.18;3.13;;;30.50;99.90;;;;;;6240007;23;20012;-79
2022/07/18 12:11:15;;;;;;;4.35;2.95;;;30.50;99.90;;;;;;6237609;23;20081;-77
2022/07/18 12:13:57;;;;;;;3.85;2.97;;;30.60;99.90;;;;;;6238947;23;20020;-77
2022/07/18 12:16:37;;;;;;;5.60;3.20;;;30.40;99.90;;;;;;6213028;23;20020;-79
2022/07/18 12:19:10;;;;;;;4.80;3.10;;;30.60;99.90;;;;;;6239097;23;20019;-77
2022/07/18 12:21:48;;;;;;;4.72;3.03;;;30.60;99.90;;;;;;6212992;23;20388;-77
2022/07/18 12:24:22;;;;;;;4.40;3.13;;;30.60;99.90;;;;;;6239216;23;20416;-78
2022/07/18 12:26:48;;;;;;;3.60;3.05;;;30.40;99.90;;;;;;6213462;23;20074;-74
2022/07/18 12:29:14;;;;;;;4.32;3.17;;;30.60;99.90;;;;;;6213148;23;20012;-75
2022/07/18 12:31:45;;;;;;;4.25;2.85;;;30.60;99.90;;;;;;6238386;23;20020;-79
2022/07/18 12:34:15;;;;;;;6.55;3.28;;;30.90;99.90;;;;;;6213735;23;20016;-78
2022/07/18 12:36:56;;;;;;;4.60;2.70;;;30.50;99.90;;;;;;6237322;23;20050;-76
2022/07/18 12:39:32;;;;;;;5.00;3.00;;;30.00;99.90;;;;;;6236565;23;20024;-78
2022/07/18 12:42:00;;;;;;;4.95;3.25;;;30.50;99.90;;;;;;6237118;23;20030;-76
2022/07/18 12:44:27;;;;;;;4.57;3.38;;;30.30;99.90;;;;;;6235450;23;20016;-77
2022/07/18 12:46:54;;;;;;;4.13;2.70;;;30.70;99.90;;;;;;6236927;23;20020;-77
2022/07/18 12:49:20;;;;;;;3.38;3.00;;;30.80;99.90;;;;;;6236890;23;20297;-78
2022/07/18 12:51:46;;;;;;;3.33;3.03;;;30.40;99.90;;;;;;6211951;23;20020;-77
2022/07/18 12:54:12;;;;;;;4.05;3.50;;;30.20;99.90;;;;;;6236518;23;20024;-79
2022/07/18 12:56:38;;;;;;;4.63;3.47;;;30.40;99.90;;;;;;6212090;23;20118;-80
2022/07/18 12:59:03;;;;;;;5.50;3.05;;;30.30;99.90;;;;;;6211845;23;20019;-78